createdAt,value
2018-11-01T00:00:11.179Z,80.02
2018-11-01T00:01:11.155Z,81.07
2018-11-01T00:02:11.149Z,83.93
2018-11-01T00:03:11.134Z,82.6
2018-11-01T00:04:11.113Z,82.03
2018-11-01T00:05:11.095Z,83.26
2018-11-01T00:06:11.084Z,83.45
2018-11-01T00:07:11.063Z,85.36
2018-11-01T00:08:11.065Z,86.6
2018-11-01T00:09:10.765Z,84.6
2018-11-01T00:10:10.750Z,84.22
2018-11-01T00:11:10.731Z,84.88
2018-11-01T00:12:10.975Z,87.27
2018-11-01T00:13:10.905Z,88.89
2018-11-01T00:14:10.945Z,86.65
2018-11-01T00:15:10.927Z,87.21
2018-11-01T00:16:10.919Z,87.31
2018-11-01T00:17:10.629Z,86.45
2018-11-01T00:18:10.619Z,88.07
2018-11-01T00:19:10.861Z,88.07
2018-11-01T00:20:10.849Z,88.03
2018-11-01T00:21:10.837Z,87.5
2018-11-01T00:22:10.551Z,86.55
2018-11-01T00:23:10.804Z,86.55
2018-11-01T00:24:10.783Z,87.98
2018-11-01T00:25:10.760Z,87.36
2018-11-01T00:26:10.747Z,87.69
2018-11-01T00:27:10.735Z,87.21
2018-11-01T00:28:10.714Z,87.55
2018-11-01T00:29:10.433Z,87.12
2018-11-01T00:30:10.684Z,87.12
2018-11-01T00:31:10.407Z,87.27
2018-11-01T00:32:10.381Z,86.51
2018-11-01T00:33:10.629Z,87.93
2018-11-01T00:34:10.352Z,89.69
2018-11-01T00:35:10.344Z,88.36
2018-11-01T00:36:10.580Z,89.65
2018-11-01T00:37:10.611Z,90.45
2018-11-01T00:38:10.282Z,88.7
2018-11-01T00:39:10.540Z,88.17
2018-11-01T00:40:10.516Z,87.4
2018-11-01T00:41:10.233Z,87.07
2018-11-01T00:42:10.484Z,86.51
2018-11-01T00:43:10.470Z,86.12
2018-11-01T00:44:10.454Z,86.98
2018-11-01T00:45:10.442Z,86.32
2018-11-01T00:46:10.423Z,84.88
2018-11-01T00:47:10.411Z,83.93
2018-11-01T00:48:10.388Z,85.55
2018-11-01T00:49:10.103Z,84.5
2018-11-01T00:50:10.357Z,84.41
2018-11-01T00:51:10.068Z,85.55
2018-11-01T00:52:10.055Z,84.69
2018-11-01T00:53:10.306Z,84.41
2018-11-01T00:54:10.291Z,83.65
2018-11-01T00:55:10.006Z,84.03
2018-11-01T00:56:09.991Z,83.45
2018-11-01T00:57:09.975Z,83.45
2018-11-01T00:58:10.219Z,83.65
2018-11-01T00:59:10.205Z,84.03
2018-11-01T01:00:10.197Z,84.31
2018-11-01T01:01:09.905Z,84.03
2018-11-01T01:02:09.913Z,82.89
2018-11-01T01:03:09.877Z,83.55
2018-11-01T01:04:10.121Z,83.93
2018-11-01T01:05:09.839Z,83.36
2018-11-01T01:06:10.085Z,82.89
2018-11-01T01:07:09.803Z,83.17
2018-11-01T01:08:10.049Z,82.12
2018-11-01T01:09:10.111Z,80.88
2018-11-01T01:10:09.759Z,80.12
2018-11-01T01:11:09.740Z,79.93
2018-11-01T01:12:09.991Z,79.8
2018-11-01T01:13:09.982Z,79.07
2018-11-01T01:14:09.955Z,79.13
2018-11-01T01:15:09.934Z,79.46
2018-11-01T01:16:09.924Z,80.12
2018-11-01T01:17:09.901Z,79.36
2018-11-01T01:18:09.892Z,77.64
2018-11-01T01:19:10.123Z,78.31
2018-11-01T01:20:09.853Z,77.74
2018-11-01T01:21:09.838Z,78.69
2018-11-01T01:22:09.821Z,77.64
2018-11-01T01:23:09.740Z,77.26
2018-11-01T01:24:09.521Z,79.83
2018-11-01T01:25:09.765Z,79.46
2018-11-01T01:26:09.754Z,78.5
2018-11-01T01:27:09.473Z,79.27
2018-11-01T01:28:09.720Z,78.69
2018-11-01T01:29:09.716Z,79.74
2018-11-01T01:30:09.687Z,79.55
2018-11-01T01:31:09.409Z,79.74
2018-11-01T01:32:09.389Z,78.31
2018-11-01T01:33:09.374Z,78.22
2018-11-01T01:34:09.621Z,78.03
2018-11-01T01:35:09.600Z,78.31
2018-11-01T01:36:09.323Z,77.55
2018-11-01T01:37:09.568Z,78.69
2018-11-01T01:38:09.558Z,78.5
2018-11-01T01:39:09.536Z,77.83
2018-11-01T01:40:09.526Z,77.74
2018-11-01T01:41:09.238Z,78.12
2018-11-01T01:42:09.482Z,77.74
2018-11-01T01:43:09.472Z,75.64
2018-11-01T01:44:09.449Z,76.31
2018-11-01T01:45:09.173Z,78.41
2018-11-01T01:46:09.419Z,78.5
2018-11-01T01:47:09.411Z,77.51
2018-11-01T01:48:09.128Z,77.64
2018-11-01T01:49:09.369Z,78.5
2018-11-01T01:50:09.350Z,79.36
2018-11-01T01:51:09.341Z,79.74
2018-11-01T01:52:09.052Z,78.88
2018-11-01T01:53:09.310Z,79.36
2018-11-01T01:54:09.019Z,79.74
2018-11-01T01:55:09.272Z,80.22
2018-11-01T01:56:09.254Z,80.79
2018-11-01T01:57:09.235Z,81.36
2018-11-01T01:58:09.226Z,80.22
2018-11-01T01:59:08.938Z,79.55
2018-11-01T02:00:08.921Z,79.93
2018-11-01T02:01:09.168Z,80.02
2018-11-01T02:02:08.885Z,79.74
2018-11-01T02:03:09.136Z,80.12
2018-11-01T02:04:09.116Z,79.74
2018-11-01T02:05:09.101Z,79.74
2018-11-01T02:06:09.087Z,79.36
2018-11-01T02:07:09.070Z,79.36
2018-11-01T02:08:09.052Z,79.46
2018-11-01T02:09:09.036Z,78.59
2018-11-01T02:10:08.752Z,77.93
2018-11-01T02:11:09.006Z,77.36
2018-11-01T02:12:08.719Z,78.22
2018-11-01T02:13:09.170Z,77.83
2018-11-01T02:14:08.688Z,77.74
2018-11-01T02:15:08.932Z,76.98
2018-11-01T02:16:08.917Z,76.4
2018-11-01T02:17:08.634Z,75.84
2018-11-01T02:18:08.616Z,76.31
2018-11-01T02:19:08.875Z,75.16
2018-11-01T02:20:08.853Z,75.42
2018-11-01T02:21:08.570Z,75.6
2018-11-01T02:22:08.821Z,75.13
2018-11-01T02:23:08.796Z,75.07
2018-11-01T02:24:08.790Z,75.04
2018-11-01T02:25:08.505Z,74.88
2018-11-01T02:26:08.752Z,74.27
2018-11-01T02:27:08.733Z,75.51
2018-11-01T02:28:08.722Z,74.84
2018-11-01T02:29:08.434Z,75.04
2018-11-01T02:30:08.696Z,74.65
2018-11-01T02:31:08.405Z,75.42
2018-11-01T02:32:08.654Z,75.13
2018-11-01T02:33:08.638Z,74.56
2018-11-01T02:34:08.621Z,73.8
2018-11-01T02:35:08.600Z,74.27
2018-11-01T02:36:08.320Z,74.37
2018-11-01T02:37:08.566Z,74.27
2018-11-01T02:38:08.320Z,74.46
2018-11-01T02:39:08.274Z,74.37
2018-11-01T02:40:08.526Z,74.56
2018-11-01T02:41:08.253Z,74.56
2018-11-01T02:42:08.495Z,74.56
2018-11-01T02:43:08.463Z,74.27
2018-11-01T02:44:08.207Z,74.84
2018-11-01T02:45:08.435Z,74.18
2018-11-01T02:46:08.414Z,74.56
2018-11-01T02:47:08.401Z,74.18
2018-11-01T02:48:08.118Z,74.46
2018-11-01T02:49:08.099Z,73.8
2018-11-01T02:50:08.102Z,74.46
2018-11-01T02:51:08.064Z,73.89
2018-11-01T02:52:08.316Z,73.7
2018-11-01T02:53:08.040Z,74.37
2018-11-01T02:54:08.283Z,74.18
2018-11-01T02:55:07.996Z,73.41
2018-11-01T02:56:07.983Z,74.18
2018-11-01T02:57:08.241Z,73.32
2018-11-01T02:58:08.209Z,73.32
2018-11-01T02:59:08.193Z,72.94
2018-11-01T03:00:08.186Z,72.81
2018-11-01T03:01:08.203Z,73
2018-11-01T03:02:08.145Z,73.19
2018-11-01T03:03:07.861Z,73.28
2018-11-01T03:04:07.848Z,71.95
2018-11-01T03:05:07.831Z,72.14
2018-11-01T03:06:08.078Z,72.05
2018-11-01T03:07:08.059Z,72.05
2018-11-01T03:08:08.042Z,72.05
2018-11-01T03:09:08.022Z,72.05
2018-11-01T03:10:08.018Z,71.76
2018-11-01T03:11:07.729Z,71.28
2018-11-01T03:12:07.976Z,71.28
2018-11-01T03:13:07.959Z,70.43
2018-11-01T03:14:07.675Z,70.05
2018-11-01T03:15:07.923Z,69.67
2018-11-01T03:16:07.901Z,68.9
2018-11-01T03:17:08.071Z,68.05
2018-11-01T03:18:07.606Z,66.2
2018-11-01T03:19:07.861Z,65.06
2018-11-01T03:20:07.842Z,64.31
2018-11-01T03:21:07.565Z,63.73
2018-11-01T03:22:07.803Z,63.17
2018-11-01T03:23:07.782Z,63.17
2018-11-01T03:24:07.772Z,61.93
2018-11-01T03:25:07.756Z,62.21
2018-11-01T03:26:07.741Z,61.16
2018-11-01T03:27:07.718Z,61.83
2018-11-01T03:28:07.703Z,61.83
2018-11-01T03:29:07.420Z,62.4
2018-11-01T03:30:07.674Z,62.21
2018-11-01T03:31:07.662Z,62.3
2018-11-01T03:32:07.628Z,61.45
2018-11-01T03:33:07.610Z,61.07
2018-11-01T03:34:07.595Z,61.83
2018-11-01T03:35:07.597Z,62.3
2018-11-01T03:36:07.298Z,61.55
2018-11-01T03:37:07.545Z,61.55
2018-11-01T03:38:07.683Z,61.45
2018-11-01T03:39:07.786Z,61.83
2018-11-01T03:40:07.221Z,61.74
2018-11-01T03:41:07.206Z,62.3
2018-11-01T03:42:07.448Z,61.74
2018-11-01T03:43:07.444Z,61.74
2018-11-01T03:44:07.419Z,62.21
2018-11-01T03:45:07.134Z,62.3
2018-11-01T03:46:07.387Z,61.74
2018-11-01T03:47:07.112Z,61.26
2018-11-01T03:48:07.084Z,60.41
2018-11-01T03:49:07.079Z,59.71
2018-11-01T03:50:07.310Z,59.23
2018-11-01T03:51:07.305Z,59.61
2018-11-01T03:52:07.594Z,59.61
2018-11-01T03:53:07.260Z,60.47
2018-11-01T03:54:07.241Z,59.71
2018-11-01T03:55:07.229Z,59.71
2018-11-01T03:56:07.211Z,60.09
2018-11-01T03:57:06.928Z,59.42
2018-11-01T03:58:07.174Z,59.42
2018-11-01T03:59:07.151Z,58.57
2018-11-01T04:00:07.143Z,57.81
2018-11-01T04:01:07.115Z,57.71
2018-11-01T04:02:07.096Z,57.14
2018-11-01T04:03:06.817Z,57.04
2018-11-01T04:04:07.073Z,57.24
2018-11-01T04:05:07.046Z,57.04
2018-11-01T04:06:06.778Z,56.85
2018-11-01T04:07:07.009Z,57.24
2018-11-01T04:08:07.011Z,57.04
2018-11-01T04:09:06.715Z,57.14
2018-11-01T04:10:06.951Z,56.38
2018-11-01T04:11:06.937Z,55.78
2018-11-01T04:12:06.916Z,53.59
2018-11-01T04:13:07.105Z,53.81
2018-11-01T04:14:06.884Z,53.59
2018-11-01T04:15:07.113Z,53.69
2018-11-01T04:16:06.846Z,53.12
2018-11-01T04:17:07.145Z,53.5
2018-11-01T04:18:06.542Z,53.88
2018-11-01T04:19:06.790Z,53.12
2018-11-01T04:20:06.776Z,52.84
2018-11-01T04:21:06.490Z,52.36
2018-11-01T04:22:06.750Z,52.36
2018-11-01T04:23:06.491Z,52.45
2018-11-01T04:24:06.438Z,52.55
2018-11-01T04:25:06.416Z,52.55
2018-11-01T04:26:06.722Z,52.45
2018-11-01T04:27:06.381Z,52.08
2018-11-01T04:28:06.357Z,51.6
2018-11-01T04:29:06.682Z,51.31
2018-11-01T04:30:06.604Z,51.31
2018-11-01T04:31:06.585Z,51.12
2018-11-01T04:32:06.556Z,50.65
2018-11-01T04:33:06.318Z,50.46
2018-11-01T04:34:06.252Z,49.98
2018-11-01T04:35:06.503Z,49.6
2018-11-01T04:36:06.542Z,49.22
2018-11-01T04:37:06.465Z,49.32
2018-11-01T04:38:06.449Z,48.85
2018-11-01T04:39:06.161Z,48.66
2018-11-01T04:40:06.406Z,47.8
2018-11-01T04:41:06.396Z,47.8
2018-11-01T04:42:06.105Z,47.71
2018-11-01T04:43:06.417Z,47.61
2018-11-01T04:44:06.153Z,47.8
2018-11-01T04:45:06.375Z,47.52
2018-11-01T04:46:06.045Z,47.61
2018-11-01T04:47:06.359Z,47.71
2018-11-01T04:48:06.508Z,47.52
2018-11-01T04:49:06.242Z,47.52
2018-11-01T04:50:05.958Z,47.04
2018-11-01T04:51:06.212Z,47.42
2018-11-01T04:52:05.924Z,47.04
2018-11-01T04:53:06.175Z,46.28
2018-11-01T04:54:05.892Z,46.28
2018-11-01T04:55:06.140Z,45.9
2018-11-01T04:56:06.120Z,45.8
2018-11-01T04:57:05.838Z,45.8
2018-11-01T04:58:06.102Z,45.61
2018-11-01T04:59:06.057Z,45.52
2018-11-01T05:00:06.045Z,45.42
2018-11-01T05:01:06.031Z,45.04
2018-11-01T05:02:06.010Z,44.47
2018-11-01T05:03:06.019Z,44.76
2018-11-01T05:04:05.973Z,44.57
2018-11-01T05:05:06.148Z,44.67
2018-11-01T05:06:05.936Z,44.28
2018-11-01T05:07:05.655Z,44.09
2018-11-01T05:08:05.934Z,44.28
2018-11-01T05:09:05.613Z,44.38
2018-11-01T05:10:05.601Z,44.28
2018-11-01T05:11:05.574Z,44.09
2018-11-01T05:12:05.823Z,44.19
2018-11-01T05:13:05.804Z,44.19
2018-11-01T05:14:05.524Z,44.47
2018-11-01T05:15:05.900Z,44.57
2018-11-01T05:16:05.753Z,44.57
2018-11-01T05:17:05.467Z,44.28
2018-11-01T05:18:05.448Z,43.9
2018-11-01T05:19:05.690Z,44.26
2018-11-01T05:20:05.483Z,44.28
2018-11-01T05:21:05.395Z,44.28
2018-11-01T05:22:05.643Z,44.38
2018-11-01T05:23:05.615Z,44.26
2018-11-01T05:24:05.611Z,44.17
2018-11-01T05:25:05.579Z,43.98
2018-11-01T05:26:05.806Z,43.88
2018-11-01T05:27:05.554Z,43.6
2018-11-01T05:28:05.263Z,43.12
2018-11-01T05:29:05.251Z,42.08
2018-11-01T05:30:05.540Z,41.69
2018-11-01T05:31:05.468Z,40.65
2018-11-01T05:32:05.452Z,38.94
2018-11-01T05:33:05.442Z,39.13
2018-11-01T05:34:05.157Z,39.04
2018-11-01T05:35:05.135Z,38.09
2018-11-01T05:36:05.377Z,37.33
2018-11-01T05:37:05.362Z,37.9
2018-11-01T05:38:05.438Z,38.09
2018-11-01T05:39:05.323Z,37.52
2018-11-01T05:40:05.312Z,37.33
2018-11-01T05:41:05.023Z,37.13
2018-11-01T05:42:05.060Z,37.63
2018-11-01T05:43:05.245Z,37.73
2018-11-01T05:44:05.238Z,38.29
2018-11-01T05:45:05.212Z,38.48
2018-11-01T05:46:05.191Z,37.54
2018-11-01T05:47:05.189Z,37.25
2018-11-01T05:48:05.191Z,37.15
2018-11-01T05:49:05.137Z,37.61
2018-11-01T05:50:05.132Z,37.63
2018-11-01T05:51:04.913Z,38.09
2018-11-01T05:52:05.239Z,38.01
2018-11-01T05:53:04.813Z,38.09
2018-11-01T05:54:05.160Z,38.18
2018-11-01T05:55:05.447Z,37.82
2018-11-01T05:56:05.156Z,36.87
2018-11-01T05:57:05.055Z,37.06
2018-11-01T05:58:04.703Z,37.35
2018-11-01T05:59:04.996Z,37.82
2018-11-01T06:00:04.766Z,38.2
2018-11-01T06:01:04.649Z,38.29
2018-11-01T06:02:04.897Z,38.58
2018-11-01T06:03:04.890Z,38.39
2018-11-01T06:04:04.863Z,38.87
2018-11-01T06:05:04.846Z,39.15
2018-11-01T06:06:04.829Z,38.87
2018-11-01T06:07:04.818Z,39.53
2018-11-01T06:08:04.784Z,39.72
2018-11-01T06:09:04.776Z,40.01
2018-11-01T06:10:04.750Z,40.29
2018-11-01T06:11:04.480Z,40.86
2018-11-01T06:12:04.512Z,41.34
2018-11-01T06:13:04.904Z,42.19
2018-11-01T06:14:04.731Z,41.81
2018-11-01T06:15:04.743Z,42.38
2018-11-01T06:16:04.666Z,43.62
2018-11-01T06:17:04.434Z,44.09
2018-11-01T06:18:04.333Z,43.62
2018-11-01T06:19:04.307Z,43.71
2018-11-01T06:20:04.291Z,43.62
2018-11-01T06:21:04.565Z,44.47
2018-11-01T06:22:04.525Z,44.67
2018-11-01T06:23:04.237Z,44.73
2018-11-01T06:24:04.218Z,45.02
2018-11-01T06:25:04.464Z,45.4
2018-11-01T06:26:04.180Z,45.59
2018-11-01T06:27:04.166Z,45.59
2018-11-01T06:28:04.140Z,45.31
2018-11-01T06:29:04.393Z,45.31
2018-11-01T06:30:04.366Z,45.21
2018-11-01T06:31:04.085Z,45.4
2018-11-01T06:32:04.329Z,45.68
2018-11-01T06:33:04.316Z,45.4
2018-11-01T06:34:04.031Z,45.31
2018-11-01T06:35:04.278Z,45.31
2018-11-01T06:36:04.257Z,45.21
2018-11-01T06:37:04.251Z,45.31
2018-11-01T06:38:04.219Z,45.12
2018-11-01T06:39:03.935Z,45.12
2018-11-01T06:40:04.184Z,45.02
2018-11-01T06:41:03.897Z,45.12
2018-11-01T06:42:03.880Z,44.93
2018-11-01T06:43:03.858Z,44.83
2018-11-01T06:44:04.129Z,44.64
2018-11-01T06:45:04.113Z,44.26
2018-11-01T06:46:04.077Z,44.26
2018-11-01T06:47:04.048Z,44.17
2018-11-01T06:48:04.031Z,44.17
2018-11-01T06:49:03.744Z,44.07
2018-11-01T06:50:04.037Z,43.57
2018-11-01T06:51:03.973Z,43.6
2018-11-01T06:52:03.694Z,43.41
2018-11-01T06:53:03.937Z,43.01
2018-11-01T06:54:03.922Z,42.93
2018-11-01T06:55:03.902Z,42.55
2018-11-01T06:56:03.613Z,42.55
2018-11-01T06:57:03.868Z,41.79
2018-11-01T06:58:03.576Z,41.39
2018-11-01T06:59:04.154Z,41.69
2018-11-01T07:00:03.801Z,39.4
2018-11-01T07:01:03.789Z,38.65
2018-11-01T07:02:03.505Z,38.75
2018-11-01T07:03:03.490Z,38.45
2018-11-01T07:04:03.460Z,37.99
2018-11-01T07:05:03.713Z,37.61
2018-11-01T07:06:03.432Z,37.21
2018-11-01T07:07:03.676Z,36
2018-11-01T07:08:03.387Z,35.33
2018-11-01T07:09:03.632Z,35.42
2018-11-01T07:10:03.616Z,35.52
2018-11-01T07:11:03.594Z,34.95
2018-11-01T07:12:03.576Z,34.76
2018-11-01T07:13:03.585Z,34.19
2018-11-01T07:14:03.284Z,34.29
2018-11-01T07:15:03.719Z,34.09
2018-11-01T07:16:03.506Z,34.09
2018-11-01T07:17:03.539Z,33.62
2018-11-01T07:18:03.465Z,33.15
2018-11-01T07:19:03.447Z,33.34
2018-11-01T07:20:03.159Z,32.77
2018-11-01T07:21:03.139Z,32.77
2018-11-01T07:22:03.391Z,32.57
2018-11-01T07:23:03.366Z,32.48
2018-11-01T07:24:03.430Z,32.29
2018-11-01T07:25:03.341Z,32.39
2018-11-01T07:26:03.209Z,32.2
2018-11-01T07:27:03.292Z,32.39
2018-11-01T07:28:03.276Z,32.29
2018-11-01T07:29:03.265Z,32.29
2018-11-01T07:30:03.239Z,32.29
2018-11-01T07:31:02.956Z,32.01
2018-11-01T07:32:03.200Z,31.92
2018-11-01T07:33:03.278Z,31.63
2018-11-01T07:34:02.898Z,31.34
2018-11-01T07:35:03.142Z,31.15
2018-11-01T07:36:03.131Z,30.96
2018-11-01T07:37:02.843Z,30.6
2018-11-01T07:38:03.088Z,30.68
2018-11-01T07:39:03.068Z,30.49
2018-11-01T07:40:03.331Z,30.12
2018-11-01T07:41:03.036Z,29.27
2018-11-01T07:42:03.018Z,29.64
2018-11-01T07:43:02.999Z,29.08
2018-11-01T07:44:02.712Z,29.36
2018-11-01T07:45:02.692Z,29.64
2018-11-01T07:46:02.936Z,29.74
2018-11-01T07:47:02.655Z,30.03
2018-11-01T07:48:02.955Z,30.03
2018-11-01T07:49:02.890Z,30.51
2018-11-01T07:50:02.600Z,30.51
2018-11-01T07:51:02.849Z,30.41
2018-11-01T07:52:02.826Z,30.6
2018-11-01T07:53:02.652Z,30.51
2018-11-01T07:54:02.795Z,30.41
2018-11-01T07:55:02.508Z,30.41
2018-11-01T07:56:02.758Z,30.79
2018-11-01T07:57:02.473Z,30.6
2018-11-01T07:58:02.716Z,31.26
2018-11-01T07:59:02.437Z,31.55
2018-11-01T08:00:02.418Z,31.26
2018-11-01T08:01:02.663Z,32.59
2018-11-01T08:02:02.384Z,33.92
2018-11-01T08:03:02.366Z,35.27
2018-11-01T08:04:02.610Z,36.7
2018-11-01T08:05:02.590Z,37.37
2018-11-01T08:06:03.078Z,37.37
2018-11-01T08:07:02.559Z,37.27
2018-11-01T08:08:02.535Z,37.46
2018-11-01T08:09:02.519Z,38.03
2018-11-01T08:10:02.244Z,37.93
2018-11-01T08:11:02.220Z,38.03
2018-11-01T08:12:02.474Z,38.22
2018-11-01T08:13:02.655Z,38.51
2018-11-01T08:14:02.171Z,39.45
2018-11-01T08:15:02.419Z,39.84
2018-11-01T08:16:02.401Z,40.22
2018-11-01T08:17:02.374Z,39.93
2018-11-01T08:18:02.091Z,40.22
2018-11-01T08:19:02.340Z,40.88
2018-11-01T08:20:02.804Z,40.98
2018-11-01T08:21:02.890Z,40.98
2018-11-01T08:22:02.025Z,40.98
2018-11-01T08:23:02.007Z,41.36
2018-11-01T08:24:02.264Z,41.36
2018-11-01T08:25:02.233Z,42.97
2018-11-01T08:26:02.231Z,44.68
2018-11-01T08:27:02.204Z,46.49
2018-11-01T08:28:02.037Z,47.92
2018-11-01T08:29:02.170Z,50.2
2018-11-01T08:30:02.144Z,52.86
2018-11-01T08:31:02.132Z,52.7
2018-11-01T08:32:02.108Z,52.89
2018-11-01T08:33:01.844Z,52.13
2018-11-01T08:34:01.811Z,51.93
2018-11-01T08:35:01.790Z,52.51
2018-11-01T08:36:01.778Z,52.03
2018-11-01T08:37:01.759Z,52.03
2018-11-01T08:38:02.008Z,51.84
2018-11-01T08:39:01.989Z,50.89
2018-11-01T08:40:01.985Z,51.27
2018-11-01T08:41:02.041Z,54.69
2018-11-01T08:42:01.673Z,55.08
2018-11-01T08:43:01.654Z,55.55
2018-11-01T08:44:01.912Z,54.69
2018-11-01T08:45:01.621Z,54.89
2018-11-01T08:46:01.603Z,54.89
2018-11-01T08:47:01.586Z,55.2
2018-11-01T08:48:01.837Z,54.63
2018-11-01T08:49:01.552Z,55.39
2018-11-01T08:50:01.931Z,55.2
2018-11-01T08:51:01.780Z,55.96
2018-11-01T08:52:01.763Z,57.96
2018-11-01T08:53:01.485Z,56.63
2018-11-01T08:54:01.730Z,57.29
2018-11-01T08:55:01.721Z,56.24
2018-11-01T08:56:01.492Z,57.1
2018-11-01T08:57:01.421Z,59.29
2018-11-01T08:58:01.659Z,60.44
2018-11-01T08:59:01.384Z,60.91
2018-11-01T09:00:01.637Z,61.86
2018-11-01T09:01:01.348Z,65.58
2018-11-01T09:02:01.603Z,64.53
2018-11-01T09:03:01.316Z,65.48
2018-11-01T09:04:01.630Z,64.05
2018-11-01T09:05:01.543Z,65.7
2018-11-01T09:06:01.263Z,66.37
2018-11-01T09:07:01.525Z,65.13
2018-11-01T09:08:01.328Z,65.8
2018-11-01T09:09:01.497Z,65.89
2018-11-01T09:10:01.201Z,66.18
2018-11-01T09:11:01.467Z,66.56
2018-11-01T09:12:01.434Z,66.08
2018-11-01T09:13:01.453Z,65.03
2018-11-01T09:14:01.411Z,64.28
2018-11-01T09:15:01.121Z,63.89
2018-11-01T09:16:01.103Z,63.89
2018-11-01T09:17:01.359Z,64.28
2018-11-01T09:18:01.330Z,65.03
2018-11-01T09:19:01.315Z,64.75
2018-11-01T09:20:01.307Z,64.28
2018-11-01T09:21:01.284Z,64.84
2018-11-01T09:22:01.276Z,64.75
2018-11-01T09:23:01.255Z,66.37
2018-11-01T09:24:00.969Z,65.03
2018-11-01T09:25:00.957Z,66.37
2018-11-01T09:26:01.202Z,66.75
2018-11-01T09:27:01.032Z,65.51
2018-11-01T09:28:00.907Z,65.32
2018-11-01T09:29:00.890Z,67.03
2018-11-01T09:30:00.871Z,65.89
2018-11-01T09:31:01.128Z,65.73
2018-11-01T09:32:01.105Z,65.03
2018-11-01T09:33:01.304Z,64.31
2018-11-01T09:34:01.076Z,64.02
2018-11-01T09:35:01.057Z,63.26
2018-11-01T09:36:01.041Z,64.69
2018-11-01T09:37:00.765Z,64.21
2018-11-01T09:38:00.748Z,63.92
2018-11-01T09:39:00.994Z,64.12
2018-11-01T09:40:00.977Z,64.21
2018-11-01T09:41:00.973Z,67.26
2018-11-01T09:42:00.681Z,67.07
2018-11-01T09:43:00.670Z,68.3
2018-11-01T09:44:00.918Z,68.02
2018-11-01T09:45:00.673Z,69.17
2018-11-01T09:46:01.182Z,69.45
2018-11-01T09:47:01.081Z,69.64
2018-11-01T09:48:00.590Z,69.54
2018-11-01T09:49:00.836Z,72.88
2018-11-01T09:50:00.563Z,71.55
2018-11-01T09:51:00.541Z,71.55
2018-11-01T09:52:00.789Z,72.6
2018-11-01T09:53:00.780Z,73.07
2018-11-01T09:54:00.758Z,74.02
2018-11-01T09:55:00.747Z,72.69
2018-11-01T09:56:00.842Z,72.69
2018-11-01T09:57:00.718Z,71.93
2018-11-01T09:58:00.700Z,71.45
2018-11-01T09:59:00.677Z,71.48
2018-11-01T10:00:00.666Z,71.58
2018-11-01T10:01:00.716Z,71.11
2018-11-01T10:02:00.634Z,71.58
2018-11-01T10:03:00.352Z,70.53
2018-11-01T10:04:00.598Z,70.63
2018-11-01T10:05:00.588Z,72.63
2018-11-01T10:06:00.761Z,77.3
2018-11-01T10:07:00.328Z,76.82
2018-11-01T10:08:00.539Z,77.59
2018-11-01T10:09:00.254Z,78.64
2018-11-01T10:10:00.507Z,77.78
2018-11-01T10:11:00.493Z,77.11
2018-11-01T10:12:00.212Z,80.26
2018-11-01T10:13:00.893Z,79.88
2018-11-01T10:14:00.187Z,79.97
2018-11-01T10:15:00.242Z,81.02
2018-11-01T10:16:01.017Z,80.92
2018-11-01T10:17:01.133Z,81.02
2018-11-01T10:18:00.595Z,82.64
2018-11-01T10:19:00.370Z,81.02
2018-11-01T10:20:00.089Z,85.21
2018-11-01T10:21:00.078Z,86.93
2018-11-01T10:22:00.207Z,88.07
2018-11-01T10:23:00.428Z,85.31
2018-11-01T10:24:00.300Z,85.78
2018-11-01T10:25:00.276Z,84.64
2018-11-01T10:26:00.259Z,83.88
2018-11-01T10:27:00.247Z,83.31
2018-11-01T10:28:00.230Z,82.54
2018-11-01T10:29:00.148Z,80.44
2018-11-01T10:30:00.192Z,80.35
2018-11-01T10:30:59.921Z,80.64
2018-11-01T10:32:00.167Z,81.78
2018-11-01T10:32:59.884Z,84.36
2018-11-01T10:34:00.482Z,83.69
2018-11-01T10:34:59.859Z,85.21
2018-11-01T10:35:59.841Z,84.26
2018-11-01T10:36:59.824Z,82.92
2018-11-01T10:37:59.809Z,82.97
2018-11-01T10:39:00.059Z,85.25
2018-11-01T10:40:00.053Z,84.78
2018-11-01T10:41:00.377Z,84.11
2018-11-01T10:42:00.014Z,85.35
2018-11-01T10:42:59.736Z,85.45
2018-11-01T10:43:59.981Z,85.54
2018-11-01T10:44:59.705Z,86.59
2018-11-01T10:45:59.689Z,85.93
2018-11-01T10:46:59.941Z,85.16
2018-11-01T10:47:59.926Z,86.21
2018-11-01T10:48:59.907Z,85.64
2018-11-01T10:49:59.897Z,84.2
2018-11-01T10:50:59.615Z,85.64
2018-11-01T10:51:59.861Z,85.16
2018-11-01T10:52:59.585Z,84.01
2018-11-01T10:54:00.075Z,84.88
2018-11-01T10:54:59.551Z,88.31
2018-11-01T10:55:59.798Z,89.54
2018-11-01T10:56:59.787Z,89.74
2018-11-01T10:57:59.769Z,88.31
2018-11-01T10:58:59.758Z,88.02
2018-11-01T10:59:59.520Z,87.64
2018-11-01T11:00:59.617Z,87.93
2018-11-01T11:01:59.449Z,87.45
2018-11-01T11:02:59.447Z,85.73
2018-11-01T11:03:59.687Z,83.35
2018-11-01T11:04:59.401Z,84.01
2018-11-01T11:05:59.653Z,86.59
2018-11-01T11:06:59.389Z,86.4
2018-11-01T11:07:59.630Z,85.73
2018-11-01T11:08:59.607Z,84.97
2018-11-01T11:09:59.328Z,86.88
2018-11-01T11:10:59.581Z,87.26
2018-11-01T11:11:59.567Z,87.35
2018-11-01T11:12:59.549Z,86.49
2018-11-01T11:13:59.544Z,85.83
2018-11-01T11:14:59.256Z,87.54
2018-11-01T11:15:59.503Z,87.35
2018-11-01T11:16:59.491Z,85.77
2018-11-01T11:17:59.214Z,84.82
2018-11-01T11:18:59.203Z,86.92
2018-11-01T11:19:59.643Z,89.5
2018-11-01T11:21:00.472Z,88.07
2018-11-01T11:21:59.423Z,86.73
2018-11-01T11:22:59.402Z,87.4
2018-11-01T11:23:59.393Z,87.59
2018-11-01T11:24:59.383Z,86.82
2018-11-01T11:25:59.100Z,86.63
2018-11-01T11:26:59.343Z,87.49
2018-11-01T11:27:59.330Z,88.64
2018-11-01T11:28:59.051Z,88.92
2018-11-01T11:29:59.418Z,89.12
2018-11-01T11:30:59.285Z,88.54
2018-11-01T11:31:59.268Z,89.97
2018-11-01T11:32:59.258Z,89.21
2018-11-01T11:33:59.241Z,88.92
2018-11-01T11:34:58.967Z,88.45
2018-11-01T11:35:59.024Z,88.16
2018-11-01T11:36:58.937Z,88.73
2018-11-01T11:37:59.183Z,93.12
2018-11-01T11:38:59.261Z,91.02
2018-11-01T11:39:59.155Z,93.51
2018-11-01T11:40:58.873Z,93.7
2018-11-01T11:41:59.123Z,94.46
2018-11-01T11:42:59.110Z,94.36
2018-11-01T11:43:58.833Z,94.36
2018-11-01T11:44:59.084Z,96.56
2018-11-01T11:45:58.805Z,96.75
2018-11-01T11:46:59.051Z,96.17
2018-11-01T11:47:58.773Z,96.27
2018-11-01T11:48:59.019Z,96.56
2018-11-01T11:49:59.006Z,97.22
2018-11-01T11:50:58.728Z,96.46
2018-11-01T11:51:58.716Z,94.56
2018-11-01T11:52:58.967Z,94.36
2018-11-01T11:53:58.954Z,93.12
2018-11-01T11:54:58.937Z,90.64
2018-11-01T11:55:58.655Z,88.73
2018-11-01T11:56:59.003Z,87.68
2018-11-01T11:57:58.907Z,88.16
2018-11-01T11:58:58.876Z,89.69
2018-11-01T11:59:58.863Z,88.83
2018-11-01T12:00:58.582Z,89.78
2018-11-01T12:01:58.567Z,89.97
2018-11-01T12:02:58.555Z,89.69
2018-11-01T12:03:58.802Z,88.83
2018-11-01T12:04:58.528Z,88.35
2018-11-01T12:05:58.599Z,86.92
2018-11-01T12:06:58.777Z,85.87
2018-11-01T12:07:58.748Z,87.97
2018-11-01T12:08:58.469Z,87.4
2018-11-01T12:09:58.721Z,85.77
2018-11-01T12:10:58.443Z,84.25
2018-11-01T12:11:58.685Z,83.39
2018-11-01T12:12:58.675Z,86.63
2018-11-01T12:13:58.940Z,85.97
2018-11-01T12:14:58.644Z,85.3
2018-11-01T12:15:58.627Z,85.21
2018-11-01T12:16:58.358Z,83.77
2018-11-01T12:17:58.341Z,83.96
2018-11-01T12:18:58.583Z,84.34
2018-11-01T12:19:58.583Z,87.4
2018-11-01T12:20:58.293Z,85.68
2018-11-01T12:21:58.542Z,84.16
2018-11-01T12:22:58.528Z,84.25
2018-11-01T12:23:58.534Z,85.49
2018-11-01T12:24:58.512Z,85.39
2018-11-01T12:25:58.495Z,84.72
2018-11-01T12:26:58.424Z,84.06
2018-11-01T12:27:58.458Z,83.87
2018-11-01T12:28:58.277Z,87.21
2018-11-01T12:29:58.426Z,87.49
2018-11-01T12:30:58.411Z,87.11
2018-11-01T12:31:58.398Z,86.35
2018-11-01T12:32:58.384Z,84.63
2018-11-01T12:33:58.364Z,83.48
2018-11-01T12:34:58.156Z,83.01
2018-11-01T12:35:58.514Z,83.01
2018-11-01T12:36:58.327Z,83.48
2018-11-01T12:37:58.316Z,85.11
2018-11-01T12:38:58.302Z,85.3
2018-11-01T12:39:58.317Z,86.16
2018-11-01T12:40:58.272Z,86.25
2018-11-01T12:41:58.250Z,85.87
2018-11-01T12:42:58.241Z,86.35
2018-11-01T12:43:57.963Z,86.06
2018-11-01T12:44:58.396Z,87.78
2018-11-01T12:45:58.192Z,87.49
2018-11-01T12:46:57.917Z,88.73
2018-11-01T12:47:58.173Z,88.83
2018-11-01T12:48:57.891Z,87.59
2018-11-01T12:49:58.046Z,86.54
2018-11-01T12:50:58.119Z,85.77
2018-11-01T12:51:57.844Z,85.58
2018-11-01T12:52:57.825Z,84.72
2018-11-01T12:53:58.077Z,83.87
2018-11-01T12:54:58.062Z,83.39